Kashan, Iran

1:18 PM IRDT on July 12, 2014 (GMT +0430)
Kashan (OIFK) Elev 3222 ft | 33.98 °N, 51.45 °E | Change Station

Current weather conditions updated 48 minutes ago

Clear
Clear
100 °F
Feels Like 100 °F
N
0
Wind Variable Wind from North

Today is forecast to be nearly the same temperature as yesterday.

Today
High -- | Low -- °F
--% Chance of Precip.
Yesterday
High -- | Low -- °F
Precip. -- in
6:02 AM 8:17 PM
Full, 100% visible
Pressure 29.92 in
Visibility 4.3 miles
Clouds Clear
Dew Point 52 °F
Humidity 20%
Rainfall 0.00 in
Snow Depth Not available.
UV 12 out of 12
Pollen Not available.
Air Quality Not available.
Flu Activity Not available.
METAR OIFK 120800Z 00000KT 7000 SKC 38/11 Q1013

More Conditions Fewer Conditions

Pressure 29.92 in
Visibility 4.3 miles
Clouds Clear
Dew Point 52 °F
Humidity 20%
Rainfall 0.00 in
Snow Depth Not available.
UV 12 out of 12
Pollen Not available.
Air Quality Not available.
Flu Activity Not available.
METAR OIFK 120800Z 00000KT 7000 SKC 38/11 Q1013

More Conditions Fewer Conditions

10-Day Weather Forecast

Almanac

Astronomy

Jul. 12, 2014 Rise Set
Actual Time 6:02 AM IRDT 8:17 PM IRDT
Civil Twilight 5:33 AM IRDT 8:45 PM IRDT
Nautical Twilight 4:58 AM IRDT 9:20 PM IRDT
Astronomical Twilight 4:20 AM IRDT 9:58 PM IRDT
Moon 8:04 PM IRDT 5:51 AM IRDT
Length of Visible Light 15h 12m
Length of Day
14h 15m
Tomorrow will be 0m 56s shorter.
Full, 100% of the Moon is Illuminated
Today
Full
Jul 12
Full
Jul 18
Last Quarter
Jul 26
New
Aug 3
First Quarter

Yesterday's Extremes

Country Highs Country Lows

Community

WunderPhotos

Upload Photos

1,732,746 photos uploaded!

Nearby

Snow Depth

Not available.

Earthquake Activity

City Distance Mag. Time & Date
No recent earthquake activity has been reported nearby.
Minimum magnitude displayed is 2.5.

Coastal Water Temperatures

Place Temperature
No Stations Reporting

Nearby Weather Stations

There are no personal weather stations in this area.